Time;durP1;ratioP1;P1;durP2;ratioP2;P2;SDS_P1;SDS_P2;PMS_P1;PMS_P2;Temp;Humidity;BMP_temperature;BMP_pressure;BME280_temperature;BME280_humidity;BME280_pressure;Samples;Min_cycle;Max_cycle;Signal;HPM_P1;HPM_P2
2021/10/09 00:00:13;;;;;;;;;;;7.90;1.00;;;;;;5032765;28;20008;-68
2021/10/09 00:02:38;;;;;;;;;;;7.90;1.00;;;;;;5037432;28;19955;-68
2021/10/09 00:05:05;;;;;;;;;;;7.90;1.00;;;;;;5039492;28;20004;-67
2021/10/09 00:07:31;;;;;;;;;;;7.80;1.00;;;;;;5043698;28;20715;-68
2021/10/09 00:10:00;;;;;;;;;;;7.80;1.00;;;;;;5031919;28;19917;-68
2021/10/09 00:12:27;;;;;;;;;;;7.80;1.00;;;;;;5044934;28;19920;-69
2021/10/09 00:14:52;;;;;;;;;;;7.80;1.00;;;;;;5040637;28;20358;-68
2021/10/09 00:17:19;;;;;;;;;;;7.80;1.00;;;;;;5043304;28;19956;-68
2021/10/09 00:19:45;;;;;;;;;;;7.80;1.00;;;;;;5045385;28;20401;-68
2021/10/09 00:22:10;;;;;;;;;;;7.80;1.00;;;;;;5039518;28;20008;-67
2021/10/09 00:24:36;;;;;;;;;;;7.80;1.00;;;;;;5035077;28;19913;-67
2021/10/09 00:27:01;;;;;;;;;;;7.80;1.00;;;;;;5043869;28;20008;-67
2021/10/09 00:29:27;;;;;;;;;;;7.70;1.00;;;;;;5037554;28;20416;-67
2021/10/09 00:31:52;;;;;;;;;;;7.70;1.00;;;;;;5040221;28;19935;-67
2021/10/09 00:34:18;;;;;;;;;;;7.70;1.00;;;;;;5033605;28;19921;-67
2021/10/09 00:36:43;;;;;;;;;;;7.70;1.00;;;;;;5044273;28;19913;-67
2021/10/09 00:39:09;;;;;;;;;;;7.70;1.00;;;;;;5045964;28;19947;-67
2021/10/09 00:41:34;;;;;;;;;;;7.70;1.00;;;;;;5044597;28;19913;-67
2021/10/09 00:44:10;;;;;;;;;;;7.70;1.00;;;;;;5040617;28;19909;-68
2021/10/09 00:46:36;;;;;;;;;;;7.70;1.00;;;;;;5044466;28;20043;-67
2021/10/09 00:49:02;;;;;;;;;;;7.70;1.00;;;;;;5036359;28;19991;-66
2021/10/09 00:51:27;;;;;;;;;;;7.70;1.00;;;;;;5033182;28;20015;-67
2021/10/09 00:53:53;;;;;;;;;;;7.60;1.00;;;;;;5039521;28;19983;-67
2021/10/09 00:56:19;;;;;;;;;;;7.60;1.00;;;;;;5034482;28;20038;-66
2021/10/09 00:58:45;;;;;;;;;;;7.60;1.00;;;;;;5029974;28;20389;-67
2021/10/09 01:01:10;;;;;;;;;;;7.60;1.00;;;;;;5031146;28;20007;-67
2021/10/09 01:03:36;;;;;;;;;;;7.60;1.00;;;;;;5038446;28;20703;-67
2021/10/09 01:06:01;;;;;;;;;;;7.60;1.00;;;;;;5030451;28;20036;-68
2021/10/09 01:08:27;;;;;;;;;;;7.60;1.00;;;;;;5045398;28;20235;-67
2021/10/09 01:10:52;;;;;;;;;;;7.60;1.00;;;;;;5042177;28;19916;-66
2021/10/09 01:13:18;;;;;;;;;;;7.60;1.00;;;;;;5038837;28;20380;-67
2021/10/09 01:15:44;;;;;;;;;;;7.60;1.00;;;;;;5046079;28;20029;-67
2021/10/09 01:18:11;;;;;;;;;;;7.50;1.00;;;;;;5030876;28;19916;-66
2021/10/09 01:20:53;;;;;;;;;;;7.50;1.00;;;;;;5038622;28;19932;-67
2021/10/09 01:23:19;;;;;;;;;;;7.50;1.00;;;;;;5046706;28;20018;-67
2021/10/09 01:25:45;;;;;;;;;;;7.50;1.00;;;;;;5036568;28;19921;-66
2021/10/09 01:28:11;;;;;;;;;;;7.50;1.00;;;;;;5036048;28;19913;-67
2021/10/09 01:30:37;;;;;;;;;;;7.50;1.00;;;;;;5036009;28;19927;-66
2021/10/09 01:33:03;;;;;;;;;;;7.50;1.00;;;;;;5028607;28;19913;-66
2021/10/09 01:35:29;;;;;;;;;;;7.50;1.00;;;;;;5047305;28;20509;-67
2021/10/09 01:37:54;;;;;;;;;;;7.40;1.00;;;;;;5034888;28;19921;-67
2021/10/09 01:40:19;;;;;;;;;;;7.40;1.00;;;;;;5040237;28;19924;-67
2021/10/09 01:42:45;;;;;;;;;;;7.40;1.00;;;;;;5039200;28;19960;-66
2021/10/09 01:45:10;;;;;;;;;;;7.40;1.00;;;;;;5045761;28;20011;-67
2021/10/09 01:47:40;;;;;;;;;;;7.40;1.00;;;;;;5045564;28;19935;-67
2021/10/09 01:50:06;;;;;;;;;;;7.40;1.00;;;;;;5039799;28;19913;-67
2021/10/09 01:52:31;;;;;;;;;;;7.40;1.00;;;;;;5032709;28;19978;-67
2021/10/09 01:54:57;;;;;;;;;;;7.40;1.00;;;;;;5037883;28;20338;-67
2021/10/09 01:57:22;;;;;;;;;;;7.40;1.00;;;;;;5038079;28;19917;-68
2021/10/09 01:59:48;;;;;;;;;;;7.30;1.00;;;;;;5040696;28;19928;-67
2021/10/09 02:02:13;;;;;;;;;;;7.30;1.00;;;;;;5030385;28;19999;-67
2021/10/09 02:04:39;;;;;;;;;;;7.40;1.00;;;;;;5031137;28;19913;-67
2021/10/09 02:07:05;;;;;;;;;;;7.40;1.00;;;;;;5037230;28;19917;-67
2021/10/09 02:09:30;;;;;;;;;;;7.30;1.00;;;;;;5043397;28;20155;-66
2021/10/09 02:11:56;;;;;;;;;;;7.30;1.00;;;;;;5033489;28;19912;-67
2021/10/09 02:14:36;;;;;;;;;;;7.30;1.00;;;;;;5039515;28;20663;-67
2021/10/09 02:17:25;;;;;;;;;;;7.30;1.00;;;;;;5029807;28;19913;-67
2021/10/09 02:28:03;;;;;;;;;;;7.30;1.00;;;;;;5040868;28;19920;-67
2021/10/09 02:30:29;;;;;;;;;;;7.20;1.00;;;;;;5035620;28;19913;-66
2021/10/09 02:32:54;;;;;;;;;;;7.30;1.00;;;;;;5031751;28;19920;-67
2021/10/09 02:35:20;;;;;;;;;;;7.30;1.00;;;;;;5037651;28;19913;-67
2021/10/09 02:37:45;;;;;;;;;;;7.30;1.00;;;;;;5041711;28;19913;-67
2021/10/09 02:40:12;;;;;;;;;;;7.20;1.00;;;;;;5036215;28;20532;-67
2021/10/09 02:42:37;;;;;;;;;;;7.20;1.00;;;;;;5040225;28;19923;-67
2021/10/09 02:45:03;;;;;;;;;;;7.20;1.00;;;;;;5042001;28;19913;-66
2021/10/09 02:47:28;;;;;;;;;;;7.20;1.00;;;;;;5031293;28;20341;-67
2021/10/09 02:49:54;;;;;;;;;;;7.10;1.00;;;;;;5044221;28;19913;-67
2021/10/09 02:52:19;;;;;;;;;;;7.20;1.00;;;;;;5030954;28;20254;-66
2021/10/09 02:54:45;;;;;;;;;;;7.20;1.00;;;;;;5046811;28;19917;-67
2021/10/09 02:57:11;;;;;;;;;;;7.10;1.00;;;;;;5033258;28;20282;-67
2021/10/09 02:59:36;;;;;;;;;;;7.10;1.00;;;;;;5045308;28;20023;-67
2021/10/09 03:02:02;;;;;;;;;;;7.10;1.00;;;;;;5032316;28;20393;-67
2021/10/09 03:04:27;;;;;;;;;;;7.10;1.00;;;;;;5031597;28;19924;-67
2021/10/09 03:06:53;;;;;;;;;;;7.10;1.00;;;;;;5039636;28;19913;-67
2021/10/09 03:09:18;;;;;;;;;;;7.00;1.00;;;;;;5038495;28;19951;-67
2021/10/09 03:11:44;;;;;;;;;;;7.10;1.00;;;;;;5041272;28;19913;-67
2021/10/09 03:14:09;;;;;;;;;;;7.00;1.00;;;;;;5043943;28;20458;-67
2021/10/09 03:16:35;;;;;;;;;;;7.00;1.00;;;;;;5040105;28;19971;-67
2021/10/09 03:19:00;;;;;;;;;;;7.00;1.00;;;;;;5046532;28;19921;-67
2021/10/09 03:21:26;;;;;;;;;;;7.00;1.00;;;;;;5037351;28;20369;-67
2021/10/09 03:23:51;;;;;;;;;;;7.00;1.00;;;;;;5041126;28;19917;-67
2021/10/09 03:26:17;;;;;;;;;;;7.00;1.00;;;;;;5034787;28;19914;-67
2021/10/09 03:28:42;;;;;;;;;;;7.00;1.00;;;;;;5047570;28;20431;-67
2021/10/09 03:31:08;;;;;;;;;;;7.00;1.00;;;;;;5040328;28;20011;-67
2021/10/09 03:33:33;;;;;;;;;;;7.00;1.00;;;;;;5037992;28;19919;-66
2021/10/09 03:35:59;;;;;;;;;;;6.90;1.00;;;;;;5038232;28;19917;-66
2021/10/09 03:38:25;;;;;;;;;;;6.90;1.00;;;;;;5040983;28;19917;-67
2021/10/09 03:40:56;;;;;;;;;;;6.90;1.00;;;;;;5034296;28;19917;-67
2021/10/09 03:43:24;;;;;;;;;;;6.90;1.00;;;;;;5046810;28;19944;-68
2021/10/09 03:53:58;;;;;;;;;;;6.90;1.00;;;;;;5029724;28;19924;-67
2021/10/09 03:56:23;;;;;;;;;;;6.90;1.00;;;;;;5037293;28;19913;-67
2021/10/09 03:58:49;;;;;;;;;;;6.90;1.00;;;;;;5041715;28;19912;-67
2021/10/09 04:01:14;;;;;;;;;;;6.80;1.00;;;;;;5040406;28;19917;-67
2021/10/09 04:03:40;;;;;;;;;;;6.80;1.00;;;;;;5047091;28;19913;-68
2021/10/09 04:06:05;;;;;;;;;;;6.80;1.00;;;;;;5047829;28;19977;-67
2021/10/09 04:08:31;;;;;;;;;;;6.80;1.00;;;;;;5030277;28;19913;-67
2021/10/09 04:10:56;;;;;;;;;;;6.80;1.00;;;;;;5036660;28;20264;-68
2021/10/09 04:13:22;;;;;;;;;;;6.80;1.00;;;;;;5035272;28;20357;-68
2021/10/09 04:15:47;;;;;;;;;;;6.80;1.00;;;;;;5037498;28;20010;-68
2021/10/09 04:18:13;;;;;;;;;;;6.70;1.00;;;;;;5045948;28;19975;-67
2021/10/09 04:20:38;;;;;;;;;;;6.80;1.00;;;;;;5047494;28;19923;-67
2021/10/09 04:23:04;;;;;;;;;;;6.70;1.00;;;;;;5048248;28;19916;-67
2021/10/09 04:25:29;;;;;;;;;;;6.70;1.00;;;;;;5046198;28;19940;-67
2021/10/09 04:27:55;;;;;;;;;;;6.70;1.00;;;;;;5063727;28;19913;-68
2021/10/09 04:30:20;;;;;;;;;;;6.60;1.00;;;;;;5057173;28;20452;-68
2021/10/09 04:32:46;;;;;;;;;;;6.60;1.00;;;;;;5048582;28;19913;-67
2021/10/09 04:35:11;;;;;;;;;;;6.60;1.00;;;;;;5039670;28;19913;-67
2021/10/09 04:37:37;;;;;;;;;;;6.60;1.00;;;;;;5047093;28;20362;-68
2021/10/09 04:40:03;;;;;;;;;;;6.70;1.00;;;;;;5033014;28;19917;-67
2021/10/09 04:42:28;;;;;;;;;;;6.60;1.00;;;;;;5041452;28;19923;-67
2021/10/09 04:44:54;;;;;;;;;;;6.70;1.00;;;;;;5044782;28;19917;-67
2021/10/09 04:47:19;;;;;;;;;;;6.70;1.00;;;;;;5045197;28;20373;-68
2021/10/09 04:49:45;;;;;;;;;;;6.70;1.00;;;;;;5045760;28;20004;-67
2021/10/09 04:52:10;;;;;;;;;;;6.70;1.00;;;;;;5035430;28;20479;-68
2021/10/09 04:54:36;;;;;;;;;;;6.70;1.00;;;;;;5034955;28;20249;-67
2021/10/09 04:57:01;;;;;;;;;;;6.70;1.00;;;;;;5037814;28;20538;-67
2021/10/09 04:59:27;;;;;;;;;;;6.70;1.00;;;;;;5029338;28;19967;-67
2021/10/09 05:01:52;;;;;;;;;;;6.70;1.00;;;;;;5027771;28;19921;-66
2021/10/09 05:04:18;;;;;;;;;;;6.70;1.00;;;;;;5029969;28;20345;-67
2021/10/09 05:06:43;;;;;;;;;;;6.70;1.00;;;;;;5045770;28;19919;-66
2021/10/09 05:09:09;;;;;;;;;;;6.80;1.00;;;;;;5034702;28;20497;-66
2021/10/09 05:11:34;;;;;;;;;;;6.80;1.00;;;;;;5048553;28;19909;-67
2021/10/09 05:14:00;;;;;;;;;;;6.90;1.00;;;;;;5043966;28;19983;-68
2021/10/09 05:16:25;;;;;;;;;;;6.90;1.00;;;;;;5028613;28;19909;-67
2021/10/09 05:18:51;;;;;;;;;;;6.90;1.00;;;;;;5034017;28;19913;-67
2021/10/09 05:21:16;;;;;;;;;;;6.90;1.00;;;;;;5029529;28;19917;-68
2021/10/09 05:23:42;;;;;;;;;;;7.00;1.00;;;;;;5036535;28;19925;-67
2021/10/09 05:26:08;;;;;;;;;;;7.00;1.00;;;;;;5036838;28;19917;-68
2021/10/09 05:28:45;;;;;;;;;;;7.10;1.00;;;;;;5041428;28;19917;-68
2021/10/09 05:31:20;;;;;;;;;;;7.00;1.00;;;;;;5048414;28;20226;-68
2021/10/09 05:33:45;;;;;;;;;;;7.00;1.00;;;;;;5047105;28;20015;-67
2021/10/09 05:36:11;;;;;;;;;;;7.00;1.00;;;;;;5027769;28;20011;-68
2021/10/09 05:38:37;;;;;;;;;;;7.00;1.00;;;;;;5028495;28;19925;-68
2021/10/09 05:41:03;;;;;;;;;;;7.00;1.00;;;;;;5037151;28;19921;-67
2021/10/09 05:43:30;;;;;;;;;;;7.10;1.00;;;;;;5046740;28;19921;-67
2021/10/09 05:45:56;;;;;;;;;;;7.20;1.00;;;;;;5041644;28;19920;-67
2021/10/09 05:48:21;;;;;;;;;;;7.20;1.00;;;;;;5046074;28;19984;-67
2021/10/09 05:51:09;;;;;;;;;;;7.30;1.00;;;;;;5045577;28;20107;-67
2021/10/09 06:31:02;;;;;;;;;;;8.00;1.00;;;;;;5031448;28;20024;-68
2021/10/09 06:31:57;;;;;;;;;;;8.10;1.00;;;;;;5031814;28;20353;-67
2021/10/09 07:01:31;;;;;;;;;;;8.20;1.00;;;;;;5031705;28;19991;-67
2021/10/09 07:03:57;;;;;;;;;;;8.20;1.00;;;;;;5031834;28;20013;-67
2021/10/09 07:06:22;;;;;;;;;;;8.20;1.00;;;;;;5050327;28;19917;-68
2021/10/09 07:08:48;;;;;;;;;;;8.30;1.00;;;;;;5047944;28;19940;-66
2021/10/09 07:11:16;;;;;;;;;;;8.30;1.00;;;;;;5032792;28;19956;-67
2021/10/09 07:13:42;;;;;;;;;;;8.40;1.00;;;;;;5047405;28;19909;-67
2021/10/09 07:16:09;;;;;;;;;;;8.40;1.00;;;;;;5043459;28;19924;-68
2021/10/09 07:18:34;;;;;;;;;;;8.40;1.00;;;;;;5050401;28;19934;-67
2021/10/09 07:20:59;;;;;;;;;;;8.50;1.00;;;;;;5050044;28;20149;-68
2021/10/09 07:23:25;;;;;;;;;;;8.60;1.00;;;;;;5049705;28;19909;-67
2021/10/09 07:25:50;;;;;;;;;;;8.70;1.00;;;;;;5037047;28;20267;-70
2021/10/09 07:28:16;;;;;;;;;;;8.70;1.00;;;;;;5037816;28;19916;-67
2021/10/09 07:30:41;;;;;;;;;;;8.70;1.00;;;;;;5048193;28;19919;-67
2021/10/09 07:33:09;;;;;;;;;;;8.70;1.00;;;;;;5048706;28;20034;-67
2021/10/09 07:35:34;;;;;;;;;;;8.80;1.00;;;;;;5048137;28;20362;-67
2021/10/09 07:37:59;;;;;;;;;;;9.00;1.00;;;;;;5050189;28;19916;-67
2021/10/09 07:40:25;;;;;;;;;;;9.20;1.00;;;;;;5042535;28;20441;-67
2021/10/09 07:42:51;;;;;;;;;;;9.30;1.00;;;;;;5048623;28;19917;-67
2021/10/09 07:45:16;;;;;;;;;;;9.30;1.00;;;;;;5037735;28;20040;-67
2021/10/09 07:47:42;;;;;;;;;;;9.40;1.00;;;;;;5030842;28;19925;-67
2021/10/09 07:50:08;;;;;;;;;;;9.50;1.00;;;;;;5037927;28;19944;-67
2021/10/09 07:52:33;;;;;;;;;;;9.60;99.90;;;;;;5030080;28;19989;-67
2021/10/09 07:54:59;;;;;;;;;;;9.70;99.90;;;;;;5041869;28;19951;-67
2021/10/09 07:57:24;;;;;;;;;;;9.80;99.90;;;;;;5049896;28;19919;-67
2021/10/09 07:59:50;;;;;;;;;;;10.00;99.90;;;;;;5041890;28;19964;-66
2021/10/09 08:02:16;;;;;;;;;;;10.10;1.00;;;;;;5029762;28;19927;-67
2021/10/09 08:04:42;;;;;;;;;;;10.10;1.00;;;;;;5036545;28;19942;-68
2021/10/09 08:07:07;;;;;;;;;;;10.30;1.00;;;;;;5048871;28;19916;-67
2021/10/09 08:09:35;;;;;;;;;;;10.50;99.90;;;;;;5034320;28;19948;-67
2021/10/09 08:12:01;;;;;;;;;;;10.60;1.00;;;;;;5046696;28;21675;-68
2021/10/09 08:14:27;;;;;;;;;;;10.60;1.00;;;;;;5035002;28;19913;-68
2021/10/09 08:16:52;;;;;;;;;;;10.50;1.00;;;;;;5048333;28;19958;-67
2021/10/09 08:19:18;;;;;;;;;;;10.50;1.00;;;;;;5047676;28;20315;-68
2021/10/09 08:21:45;;;;;;;;;;;10.40;1.00;;;;;;5046932;28;19935;-68
2021/10/09 08:35:34;;;;;;;;;;;11.00;1.00;;;;;;5022757;28;19913;-68
2021/10/09 08:40:44;;;;;;;;;;;11.10;99.90;;;;;;5046246;28;20333;-68
2021/10/09 08:43:10;;;;;;;;;;;11.10;99.90;;;;;;5045596;28;19908;-70
2021/10/09 08:45:35;;;;;;;;;;;12.10;1.00;;;;;;5045382;28;19913;-68
2021/10/09 08:48:01;;;;;;;;;;;15.10;1.00;;;;;;5045967;28;19908;-68
2021/10/09 08:50:27;;;;;;;;;;;15.20;1.00;;;;;;5045929;28;19928;-68
2021/10/09 08:53:09;;;;;;;;;;;15.70;1.00;;;;;;5045333;28;19913;-68
2021/10/09 08:55:37;;;;;;;;;;;14.50;1.00;;;;;;5046226;28;19909;-68
2021/10/09 08:58:06;;;;;;;;;;;13.50;1.00;;;;;;5046495;28;19962;-68
2021/10/09 09:03:29;;;;;;;;;;;12.60;1.00;;;;;;5040462;28;20493;-68
2021/10/09 09:06:08;;;;;;;;;;;12.50;1.00;;;;;;5045504;28;19966;-68
2021/10/09 09:25:35;;;;;;;;;;;13.40;1.00;;;;;;5037393;28;19916;-68
2021/10/09 09:33:53;;;;;;;;;;;12.80;1.00;;;;;;5042260;28;19999;-67
2021/10/09 09:36:47;;;;;;;;;;;13.30;1.00;;;;;;5039451;28;19923;-67
2021/10/09 09:39:13;;;;;;;;;;;14.60;1.00;;;;;;5033113;28;19921;-68
2021/10/09 09:41:43;;;;;;;;;;;14.50;1.00;;;;;;5037442;28;19935;-68
2021/10/09 09:44:10;;;;;;;;;;;15.30;1.00;;;;;;5046998;28;19973;-67
2021/10/09 09:46:36;;;;;;;;;;;16.70;99.90;;;;;;5053726;28;19999;-68
2021/10/09 09:49:02;;;;;;;;;;;16.10;99.90;;;;;;5035025;28;19956;-68
2021/10/09 09:51:27;;;;;;;;;;;15.60;99.90;;;;;;5043789;28;20354;-68
2021/10/09 09:53:53;;;;;;;;;;;15.30;99.90;;;;;;5033554;28;20537;-67
2021/10/09 09:56:18;;;;;;;;;;;15.30;99.90;;;;;;5039299;28;20290;-67
2021/10/09 09:58:45;;;;;;;;;;;15.30;99.90;;;;;;5028096;28;19909;-67
2021/10/09 10:01:12;;;;;;;;;;;15.20;99.90;;;;;;5039493;28;19974;-66
2021/10/09 10:03:40;;;;;;;;;;;14.80;99.90;;;;;;5034357;28;19912;-66
2021/10/09 10:06:06;;;;;;;;;;;15.00;99.90;;;;;;5031044;28;19986;-67
2021/10/09 10:08:32;;;;;;;;;;;15.70;99.90;;;;;;5040780;28;19979;-67
2021/10/09 10:10:58;;;;;;;;;;;16.00;99.90;;;;;;5048091;28;19921;-68
2021/10/09 10:13:24;;;;;;;;;;;16.00;99.90;;;;;;5057413;28;19999;-68
2021/10/09 10:15:53;;;;;;;;;;;16.10;99.90;;;;;;5057946;28;19946;-68
2021/10/09 10:18:37;;;;;;;;;;;15.80;99.90;;;;;;5052851;28;19921;-68
2021/10/09 10:21:03;;;;;;;;;;;16.00;99.90;;;;;;5056408;28;20420;-67
2021/10/09 10:23:33;;;;;;;;;;;16.30;99.90;;;;;;5057008;28;20050;-67
2021/10/09 10:26:17;;;;;;;;;;;17.20;99.90;;;;;;5058034;28;19962;-67
2021/10/09 10:28:43;;;;;;;;;;;18.80;99.90;;;;;;5043190;28;19912;-67
2021/10/09 10:31:08;;;;;;;;;;;20.10;99.90;;;;;;5054148;28;20000;-70
2021/10/09 10:33:38;;;;;;;;;;;21.20;99.90;;;;;;5047301;28;20222;-68
2021/10/09 10:36:04;;;;;;;;;;;21.80;99.90;;;;;;5041226;28;19938;-68
2021/10/09 10:38:34;;;;;;;;;;;23.00;99.90;;;;;;5032658;28;19909;-68
2021/10/09 10:41:03;;;;;;;;;;;23.70;99.90;;;;;;5040113;28;19921;-68
2021/10/09 10:45:58;;;;;;;;;;;22.80;99.90;;;;;;5044104;28;20014;-68
2021/10/09 10:48:42;;;;;;;;;;;21.90;99.90;;;;;;5035789;28;19936;-69
2021/10/09 10:51:14;;;;;;;;;;;21.80;99.90;;;;;;5040342;28;20015;-70
2021/10/09 10:56:35;;;;;;;;;;;21.70;99.90;;;;;;5048007;28;20531;-68
2021/10/09 10:59:19;;;;;;;;;;;21.60;99.90;;;;;;5039603;28;19939;-70
2021/10/09 11:01:44;;;;;;;;;;;21.00;99.90;;;;;;5046445;28;20330;-70
2021/10/09 11:04:10;;;;;;;;;;;20.00;99.90;;;;;;5045090;28;19916;-70
2021/10/09 11:06:36;;;;;;;;;;;19.70;99.90;;;;;;5046473;28;19995;-68
2021/10/09 11:09:02;;;;;;;;;;;19.80;99.90;;;;;;5045979;28;19913;-68
2021/10/09 11:11:33;;;;;;;;;;;19.80;99.90;;;;;;5049621;28;19913;-69
2021/10/09 11:13:59;;;;;;;;;;;19.60;99.90;;;;;;5048861;28;19988;-69
2021/10/09 11:16:28;;;;;;;;;;;19.60;99.90;;;;;;5048912;28;20003;-69
2021/10/09 11:18:53;;;;;;;;;;;18.70;99.90;;;;;;5050182;28;19931;-68
2021/10/09 11:21:19;;;;;;;;;;;17.80;99.90;;;;;;5032771;28;19921;-68
2021/10/09 11:23:52;;;;;;;;;;;17.90;99.90;;;;;;5050551;28;19909;-69
2021/10/09 11:26:18;;;;;;;;;;;18.30;99.90;;;;;;5050867;28;20008;-68
2021/10/09 11:28:44;;;;;;;;;;;18.50;99.90;;;;;;5050248;28;19932;-69
2021/10/09 11:31:24;;;;;;;;;;;18.60;99.90;;;;;;5050179;28;20027;-69
2021/10/09 11:33:53;;;;;;;;;;;18.90;99.90;;;;;;5050410;28;19916;-69
2021/10/09 11:36:18;;;;;;;;;;;18.90;99.90;;;;;;5050671;28;19963;-69
2021/10/09 11:38:44;;;;;;;;;;;19.00;99.90;;;;;;5050220;28;19917;-68
2021/10/09 11:41:17;;;;;;;;;;;19.50;99.90;;;;;;5084468;23;20391;-69
2021/10/09 11:43:49;;;;;;;;;;;19.50;99.90;;;;;;5070821;28;19928;-69
2021/10/09 11:46:33;;;;;;;;;;;19.70;99.90;;;;;;5071276;28;20390;-69
2021/10/09 11:54:52;;;;;;;;;;;19.20;99.90;;;;;;5071205;28;20305;-68
2021/10/09 11:57:18;;;;;;;;;;;19.10;99.90;;;;;;5071161;28;19909;-68
2021/10/09 11:59:43;;;;;;;;;;;19.00;99.90;;;;;;5071724;28;19928;-69
2021/10/09 12:02:09;;;;;;;;;;;18.80;99.90;;;;;;5070497;28;19988;-67
2021/10/09 12:04:35;;;;;;;;;;;18.60;99.90;;;;;;5070979;28;19912;-68
2021/10/09 12:09:38;;;;;;;;;;;18.60;99.90;;;;;;5070960;28;19913;-69
2021/10/09 12:12:35;;;;;;;;;;;18.40;99.90;;;;;;5071120;28;19916;-69
2021/10/09 12:15:01;;;;;;;;;;;18.30;99.90;;;;;;5070495;28;20543;-68
2021/10/09 12:17:36;;;;;;;;;;;18.30;99.90;;;;;;5070773;28;19912;-69
2021/10/09 12:20:07;;;;;;;;;;;18.20;99.90;;;;;;5065815;28;20318;-69
2021/10/09 12:22:55;;;;;;;;;;;18.10;99.90;;;;;;5050243;28;19913;-69
2021/10/09 12:25:28;;;;;;;;;;;17.80;99.90;;;;;;5050819;28;19917;-68
2021/10/09 12:27:55;;;;;;;;;;;17.80;99.90;;;;;;5054937;28;19908;-69
2021/10/09 12:30:21;;;;;;;;;;;17.50;99.90;;;;;;5070798;28;20003;-69
2021/10/09 12:32:50;;;;;;;;;;;17.30;99.90;;;;;;5069333;28;20023;-69
2021/10/09 12:35:23;;;;;;;;;;;17.20;99.90;;;;;;5070496;28;19924;-69
2021/10/09 12:37:58;;;;;;;;;;;17.00;99.90;;;;;;5058302;28;19944;-68
2021/10/09 12:40:25;;;;;;;;;;;17.00;99.90;;;;;;5051077;28;19912;-70
2021/10/09 12:42:55;;;;;;;;;;;17.00;99.90;;;;;;5049116;28;19929;-70
2021/10/09 12:45:21;;;;;;;;;;;17.20;99.90;;;;;;5051325;28;19963;-68
2021/10/09 12:47:47;;;;;;;;;;;17.20;99.90;;;;;;5050470;28;20389;-69
2021/10/09 12:50:13;;;;;;;;;;;16.80;99.90;;;;;;5050208;28;19909;-69
2021/10/09 12:52:38;;;;;;;;;;;16.70;99.90;;;;;;5049281;28;20023;-68
2021/10/09 12:55:06;;;;;;;;;;;16.80;99.90;;;;;;5051263;28;19996;-68
2021/10/09 12:57:32;;;;;;;;;;;16.60;99.90;;;;;;5050186;28;19909;-69
2021/10/09 12:59:58;;;;;;;;;;;16.70;99.90;;;;;;5050558;28;20383;-69
2021/10/09 13:02:23;;;;;;;;;;;16.70;99.90;;;;;;5050053;28;19948;-69
2021/10/09 13:04:49;;;;;;;;;;;16.60;99.90;;;;;;5050534;28;19966;-70
2021/10/09 13:07:14;;;;;;;;;;;16.20;99.90;;;;;;5050087;28;19909;-68
2021/10/09 13:09:40;;;;;;;;;;;16.20;99.90;;;;;;5049661;28;19994;-69
2021/10/09 13:12:08;;;;;;;;;;;16.20;99.90;;;;;;5049238;28;19909;-69
2021/10/09 13:14:33;;;;;;;;;;;16.30;99.90;;;;;;5049969;28;19913;-69
2021/10/09 13:16:59;;;;;;;;;;;16.30;99.90;;;;;;5040885;28;20004;-68
2021/10/09 13:19:25;;;;;;;;;;;16.20;99.90;;;;;;5029595;28;20321;-69
2021/10/09 13:21:51;;;;;;;;;;;16.20;99.90;;;;;;5046859;28;19920;-68
2021/10/09 13:24:16;;;;;;;;;;;16.00;99.90;;;;;;5038385;28;19954;-69
2021/10/09 13:26:42;;;;;;;;;;;16.00;99.90;;;;;;5047011;28;19917;-69
2021/10/09 13:29:07;;;;;;;;;;;16.00;99.90;;;;;;5041630;28;19915;-69
2021/10/09 13:31:33;;;;;;;;;;;15.60;99.90;;;;;;5050946;28;20331;-66
2021/10/09 13:33:58;;;;;;;;;;;15.60;99.90;;;;;;5048451;28;19982;-69
2021/10/09 13:36:25;;;;;;;;;;;15.70;99.90;;;;;;5047322;28;19909;-69
2021/10/09 13:38:50;;;;;;;;;;;15.70;99.90;;;;;;5031605;28;19917;-68
2021/10/09 13:41:16;;;;;;;;;;;15.60;99.90;;;;;;5035215;28;19940;-68
2021/10/09 13:43:41;;;;;;;;;;;15.40;99.90;;;;;;5033675;28;19917;-70
2021/10/09 13:46:07;;;;;;;;;;;15.20;99.90;;;;;;5048920;28;19908;-68
2021/10/09 13:48:33;;;;;;;;;;;15.10;99.90;;;;;;5048626;28;19920;-68
2021/10/09 13:50:59;;;;;;;;;;;15.00;99.90;;;;;;5053855;28;19916;-68
2021/10/09 13:53:24;;;;;;;;;;;15.00;99.90;;;;;;5043469;28;19920;-69
2021/10/09 13:55:50;;;;;;;;;;;15.00;99.90;;;;;;5048637;28;19940;-68
2021/10/09 13:58:16;;;;;;;;;;;15.10;99.90;;;;;;5061374;28;19912;-70
2021/10/09 14:00:43;;;;;;;;;;;15.20;99.90;;;;;;5054773;28;19916;-70
2021/10/09 14:03:09;;;;;;;;;;;15.20;99.90;;;;;;5041925;28;19928;-71
2021/10/09 14:05:35;;;;;;;;;;;15.10;99.90;;;;;;5038584;28;20285;-72
2021/10/09 14:08:01;;;;;;;;;;;15.00;99.90;;;;;;5035081;28;20026;-69
2021/10/09 14:10:27;;;;;;;;;;;15.00;99.90;;;;;;5041488;28;20331;-70
2021/10/09 14:12:52;;;;;;;;;;;14.90;99.90;;;;;;5043670;28;19920;-68
2021/10/09 14:15:19;;;;;;;;;;;14.90;99.90;;;;;;5045262;28;19912;-70
2021/10/09 14:17:44;;;;;;;;;;;14.80;99.90;;;;;;5032278;28;19929;-70
2021/10/09 14:20:10;;;;;;;;;;;14.80;99.90;;;;;;5043613;28;19988;-71
2021/10/09 14:22:36;;;;;;;;;;;14.80;99.90;;;;;;5034735;28;19924;-71
2021/10/09 14:25:02;;;;;;;;;;;14.90;99.90;;;;;;5042728;28;19913;-71
2021/10/09 14:27:28;;;;;;;;;;;14.90;99.90;;;;;;5041311;28;19917;-71
2021/10/09 14:29:54;;;;;;;;;;;14.90;99.90;;;;;;5042707;28;20396;-69
2021/10/09 14:32:20;;;;;;;;;;;14.90;99.90;;;;;;5051408;28;20380;-69
2021/10/09 14:34:45;;;;;;;;;;;14.80;99.90;;;;;;5051072;28;19925;-68
2021/10/09 14:37:11;;;;;;;;;;;14.80;99.90;;;;;;5056971;28;20384;-69
2021/10/09 14:39:36;;;;;;;;;;;14.80;99.90;;;;;;5048154;28;20427;-69
2021/10/09 14:42:03;;;;;;;;;;;14.80;99.90;;;;;;5042789;28;19962;-68
2021/10/09 14:44:29;;;;;;;;;;;14.80;99.90;;;;;;5044877;28;19917;-68
2021/10/09 14:49:35;;;;;;;;;;;14.80;99.90;;;;;;5045099;28;19938;-67
2021/10/09 15:19:00;;;;;;;;;;;14.50;99.90;;;;;;5031624;28;20003;-66
2021/10/09 15:21:26;;;;;;;;;;;14.40;99.90;;;;;;5049414;28;20299;-67
2021/10/09 15:23:51;;;;;;;;;;;14.30;99.90;;;;;;5050995;28;19979;-66
2021/10/09 15:26:17;;;;;;;;;;;14.20;99.90;;;;;;5052552;28;19978;-67
2021/10/09 15:28:42;;;;;;;;;;;14.20;99.90;;;;;;5052188;28;19913;-67
2021/10/09 15:31:11;;;;;;;;;;;14.10;99.90;;;;;;5051515;28;19913;-66
2021/10/09 15:33:37;;;;;;;;;;;14.10;99.90;;;;;;5052322;28;19947;-67
2021/10/09 15:36:02;;;;;;;;;;;14.10;99.90;;;;;;5052037;28;19964;-66
2021/10/09 15:38:28;;;;;;;;;;;14.10;99.90;;;;;;5053200;28;19915;-66
2021/10/09 15:40:53;;;;;;;;;;;14.00;99.90;;;;;;5061913;28;19958;-66
2021/10/09 15:43:20;;;;;;;;;;;14.00;99.90;;;;;;5062860;28;20330;-67
2021/10/09 15:45:46;;;;;;;;;;;13.90;99.90;;;;;;5072634;28;20352;-67
2021/10/09 15:48:11;;;;;;;;;;;13.90;99.90;;;;;;5073179;28;19957;-67
2021/10/09 15:50:37;;;;;;;;;;;13.80;99.90;;;;;;5073020;28;20006;-66
2021/10/09 15:53:03;;;;;;;;;;;13.80;99.90;;;;;;5074815;28;19970;-67
2021/10/09 15:55:29;;;;;;;;;;;13.80;99.90;;;;;;5071991;28;19935;-67
2021/10/09 15:57:56;;;;;;;;;;;13.70;99.90;;;;;;5072130;28;19919;-67
2021/10/09 16:00:21;;;;;;;;;;;13.60;99.90;;;;;;5074182;28;20395;-66
2021/10/09 16:02:47;;;;;;;;;;;13.60;99.90;;;;;;5072562;28;19963;-66
2021/10/09 16:05:15;;;;;;;;;;;13.50;99.90;;;;;;5071566;28;20337;-66
2021/10/09 16:07:41;;;;;;;;;;;13.50;99.90;;;;;;5072083;28;19913;-66
2021/10/09 16:10:07;;;;;;;;;;;13.40;99.90;;;;;;5071389;28;19908;-67
2021/10/09 16:12:33;;;;;;;;;;;13.30;99.90;;;;;;5070045;28;19919;-67
2021/10/09 16:14:59;;;;;;;;;;;13.30;99.90;;;;;;5072338;28;20280;-67
2021/10/09 16:17:26;;;;;;;;;;;13.20;99.90;;;;;;5071712;28;19908;-65
2021/10/09 16:19:51;;;;;;;;;;;13.20;99.90;;;;;;5071007;28;19920;-67
2021/10/09 16:22:17;;;;;;;;;;;13.10;99.90;;;;;;5070386;28;19916;-66
2021/10/09 16:24:43;;;;;;;;;;;13.00;99.90;;;;;;5059524;28;19916;-66
2021/10/09 16:27:08;;;;;;;;;;;12.90;99.90;;;;;;5052106;28;19912;-66
2021/10/09 16:29:34;;;;;;;;;;;12.80;99.90;;;;;;5069703;28;19978;-67
2021/10/09 16:32:00;;;;;;;;;;;12.70;99.90;;;;;;5070383;28;20367;-66
2021/10/09 16:34:25;;;;;;;;;;;12.70;1.00;;;;;;5070614;28;20304;-66
2021/10/09 16:36:55;;;;;;;;;;;12.70;1.00;;;;;;5067319;28;20324;-67
2021/10/09 16:39:25;;;;;;;;;;;12.60;1.00;;;;;;5050713;28;20414;-65
2021/10/09 16:41:50;;;;;;;;;;;12.50;1.00;;;;;;5050712;28;19916;-66
2021/10/09 16:44:16;;;;;;;;;;;12.40;1.00;;;;;;5050516;28;20332;-66
2021/10/09 16:46:42;;;;;;;;;;;12.30;1.00;;;;;;5048675;28;19916;-67
2021/10/09 16:49:07;;;;;;;;;;;12.30;1.00;;;;;;5046737;28;19917;-67
2021/10/09 16:51:34;;;;;;;;;;;12.20;1.00;;;;;;5048549;28;19917;-67
2021/10/09 16:54:00;;;;;;;;;;;12.10;1.00;;;;;;5048599;28;19940;-67
2021/10/09 16:56:25;;;;;;;;;;;12.10;1.00;;;;;;5060860;28;19908;-66
2021/10/09 16:58:51;;;;;;;;;;;12.00;1.00;;;;;;5070446;28;20509;-66
2021/10/09 17:01:16;;;;;;;;;;;11.90;1.00;;;;;;5069817;28;19913;-68
2021/10/09 17:03:42;;;;;;;;;;;11.80;1.00;;;;;;5070091;28;19941;-67
2021/10/09 17:06:08;;;;;;;;;;;11.80;1.00;;;;;;5070208;28;19909;-66
2021/10/09 17:08:34;;;;;;;;;;;11.70;1.00;;;;;;5059147;28;19984;-66
2021/10/09 17:11:00;;;;;;;;;;;11.70;1.00;;;;;;5050594;28;19933;-65